createdAt,value
2019-05-21T00:01:05.813Z,11.14
2019-05-21T00:03:33.829Z,11.13
2019-05-21T00:06:01.677Z,11.08
2019-05-21T00:08:29.784Z,11.07
2019-05-21T00:10:57.875Z,11.05
2019-05-21T00:13:25.800Z,11.03
2019-05-21T00:15:53.813Z,11.05
2019-05-21T00:18:21.662Z,11.09
2019-05-21T00:20:49.587Z,11.13
2019-05-21T00:23:17.454Z,11.17
2019-05-21T00:25:45.551Z,11.17
2019-05-21T00:28:38.321Z,11.18
2019-05-21T00:31:42.188Z,11.20
2019-05-21T00:34:46.123Z,11.12
2019-05-21T00:37:51.552Z,11.14
2019-05-21T00:40:55.770Z,11.06
2019-05-21T00:43:40.407Z,11.08
2019-05-21T00:46:08.327Z,11.18
2019-05-21T00:48:36.052Z,11.11
2019-05-21T00:51:04.817Z,11.07
2019-05-21T00:53:32.644Z,11.08
2019-05-21T00:56:00.525Z,11.08
2019-05-21T00:58:28.467Z,11.11
2019-05-21T01:00:56.783Z,11.13
2019-05-21T01:03:25.429Z,11.14
2019-05-21T01:05:53.301Z,11.17
2019-05-21T01:08:21.472Z,11.19
2019-05-21T01:10:49.415Z,11.22
2019-05-21T01:13:17.270Z,11.27
2019-05-21T01:15:45.159Z,11.14
2019-05-21T01:18:13.317Z,11.26
2019-05-21T01:20:41.307Z,11.28
2019-05-21T01:23:09.393Z,11.22
2019-05-21T01:25:37.416Z,11.22
2019-05-21T01:28:05.559Z,11.22
2019-05-21T01:30:33.804Z,11.24
2019-05-21T01:33:01.988Z,11.20
2019-05-21T01:35:29.919Z,11.18
2019-05-21T01:37:57.778Z,11.23
2019-05-21T01:40:25.882Z,11.25
2019-05-21T01:42:54.203Z,11.29
2019-05-21T01:45:22.025Z,11.23
2019-05-21T01:47:50.082Z,11.28
2019-05-21T01:50:17.982Z,11.28
2019-05-21T01:52:46.037Z,11.26
2019-05-21T01:55:14.002Z,11.22
2019-05-21T01:57:41.824Z,11.18
2019-05-21T02:00:10.138Z,11.22
2019-05-21T02:02:38.188Z,11.23
2019-05-21T02:05:06.403Z,11.36
2019-05-21T02:07:34.499Z,11.31
2019-05-21T02:10:03.988Z,11.25
2019-05-21T02:12:33.132Z,11.32
2019-05-21T02:15:01.038Z,11.26
2019-05-21T02:17:29.120Z,11.27
2019-05-21T02:19:57.091Z,11.29
2019-05-21T02:22:25.096Z,11.33
2019-05-21T02:24:53.014Z,11.28
2019-05-21T02:27:21.116Z,11.25
2019-05-21T02:29:49.978Z,11.22
2019-05-21T02:32:18.151Z,11.10
2019-05-21T02:34:46.018Z,11.23
2019-05-21T02:37:14.040Z,11.25
2019-05-21T02:39:42.150Z,11.22
2019-05-21T02:42:10.093Z,11.24
2019-05-21T02:44:37.992Z,11.20
2019-05-21T02:47:05.995Z,11.17
2019-05-21T02:49:33.945Z,11.13
2019-05-21T02:52:01.937Z,11.14
2019-05-21T02:54:40.023Z,11.13
2019-05-21T02:57:00.227Z,11.17
2019-05-21T02:59:28.235Z,11.21
2019-05-21T03:02:24.617Z,11.19
2019-05-21T03:04:52.689Z,11.21
2019-05-21T03:07:20.787Z,11.22
2019-05-21T03:09:49.105Z,11.23
2019-05-21T03:12:17.632Z,11.22
2019-05-21T03:14:46.068Z,11.13
2019-05-21T03:17:14.306Z,11.20
2019-05-21T03:19:42.326Z,11.14
2019-05-21T03:22:10.061Z,11.14
2019-05-21T03:24:38.221Z,11.16
2019-05-21T03:27:06.306Z,11.16
2019-05-21T03:29:34.330Z,11.18
2019-05-21T03:32:02.267Z,11.27
2019-05-21T03:34:30.286Z,11.28
2019-05-21T03:36:58.319Z,11.24
2019-05-21T03:39:26.944Z,11.16
2019-05-21T03:41:54.804Z,11.39
2019-05-21T03:44:22.800Z,11.45
2019-05-21T03:46:50.782Z,11.31
2019-05-21T03:49:18.820Z,11.49
2019-05-21T03:51:46.668Z,11.57
2019-05-21T03:54:16.373Z,11.65
2019-05-21T03:56:44.250Z,11.66
2019-05-21T03:59:12.133Z,11.64
2019-05-21T04:01:40.114Z,11.62
2019-05-21T04:04:08.105Z,11.69
2019-05-21T04:06:50.510Z,11.73
2019-05-21T04:09:06.636Z,11.78
2019-05-21T04:11:34.527Z,11.81
2019-05-21T04:14:02.472Z,11.84
2019-05-21T04:16:37.211Z,11.89
2019-05-21T04:19:18.224Z,11.97
2019-05-21T04:21:46.325Z,12.01
2019-05-21T04:24:14.122Z,12.01
2019-05-21T04:26:42.038Z,12.19
2019-05-21T04:29:09.957Z,12.35
2019-05-21T04:31:37.950Z,12.49
2019-05-21T04:34:05.797Z,12.47
2019-05-21T04:36:34.082Z,12.67
2019-05-21T04:39:05.343Z,12.87
2019-05-21T04:41:33.295Z,13.01
2019-05-21T04:44:01.163Z,13.15
2019-05-21T04:46:29.274Z,13.18
2019-05-21T04:48:56.809Z,13.24
2019-05-21T04:51:24.681Z,13.39
2019-05-21T04:53:52.521Z,13.53
2019-05-21T04:56:20.603Z,13.58
2019-05-21T04:58:48.449Z,13.69
2019-05-21T05:01:16.437Z,13.80
2019-05-21T05:03:44.601Z,13.84
2019-05-21T05:06:12.865Z,13.86
2019-05-21T05:08:40.672Z,13.97
2019-05-21T05:11:08.768Z,14.05
2019-05-21T05:13:36.758Z,14.25
2019-05-21T05:16:04.767Z,14.47
2019-05-21T05:18:33.102Z,14.62
2019-05-21T05:21:01.415Z,14.87
2019-05-21T05:23:29.498Z,15.18
2019-05-21T05:25:58.465Z,15.28
2019-05-21T05:28:26.103Z,15.44
2019-05-21T05:30:54.004Z,15.57
2019-05-21T05:33:22.068Z,15.59
2019-05-21T05:35:50.249Z,15.74
2019-05-21T05:38:18.274Z,15.81
2019-05-21T05:40:46.304Z,15.91
2019-05-21T05:43:14.635Z,16.01
2019-05-21T05:45:42.621Z,16.09
2019-05-21T05:48:10.887Z,16.19
2019-05-21T05:50:40.963Z,16.09
2019-05-21T05:53:09.035Z,16.08
2019-05-21T05:55:37.163Z,16.13
2019-05-21T05:58:05.304Z,16.25
2019-05-21T06:00:33.267Z,16.28
2019-05-21T06:03:01.149Z,16.45
2019-05-21T06:05:29.330Z,16.69
2019-05-21T06:08:00.398Z,16.62
2019-05-21T06:10:28.920Z,16.51
2019-05-21T06:12:56.987Z,16.71
2019-05-21T06:15:24.994Z,16.88
2019-05-21T06:17:52.981Z,16.98
2019-05-21T06:20:21.216Z,16.79
2019-05-21T06:22:49.283Z,16.95
2019-05-21T06:25:17.496Z,16.72
2019-05-21T06:27:45.396Z,16.67
2019-05-21T06:30:13.604Z,16.55
2019-05-21T06:32:41.759Z,16.64
2019-05-21T06:35:10.330Z,16.56
2019-05-21T06:37:38.622Z,16.89
2019-05-21T06:40:06.882Z,16.92
2019-05-21T06:42:34.806Z,17.04
2019-05-21T06:45:03.462Z,16.98
2019-05-21T06:47:31.648Z,17.10
2019-05-21T06:49:59.869Z,17.29
2019-05-21T06:52:27.805Z,17.49
2019-05-21T06:54:55.737Z,17.58
2019-05-21T06:57:23.741Z,17.66
2019-05-21T06:59:51.653Z,17.60
2019-05-21T07:02:19.564Z,17.53
2019-05-21T07:04:47.516Z,17.66
2019-05-21T07:07:15.589Z,17.71
2019-05-21T07:09:43.751Z,17.82
2019-05-21T07:12:11.733Z,17.99
2019-05-21T07:14:39.656Z,18.04
2019-05-21T07:17:07.587Z,18.16
2019-05-21T07:19:35.605Z,18.23
2019-05-21T07:22:12.611Z,18.17
2019-05-21T07:24:33.448Z,17.96
2019-05-21T07:27:01.654Z,17.88
2019-05-21T07:29:29.584Z,17.84
2019-05-21T07:31:57.552Z,17.96
2019-05-21T07:34:25.457Z,17.98
2019-05-21T07:36:53.483Z,18.10
2019-05-21T07:39:21.400Z,18.14
2019-05-21T07:41:49.431Z,18.34
2019-05-21T07:44:17.337Z,18.33
2019-05-21T07:46:45.275Z,18.39
2019-05-21T07:49:13.297Z,18.50
2019-05-21T07:51:41.251Z,18.65
2019-05-21T07:54:09.363Z,18.56
2019-05-21T07:56:37.200Z,18.26
2019-05-21T07:59:05.122Z,18.39
2019-05-21T08:01:33.107Z,18.56
2019-05-21T08:04:01.045Z,18.81
2019-05-21T08:06:29.271Z,19.12
2019-05-21T08:09:12.743Z,19.28
2019-05-21T08:11:26.847Z,19.39
2019-05-21T08:13:54.851Z,19.28
2019-05-21T08:16:22.741Z,19.66
2019-05-21T08:18:50.278Z,19.72
2019-05-21T08:21:17.920Z,19.68
2019-05-21T08:23:45.485Z,19.57
2019-05-21T08:26:13.066Z,19.48
2019-05-21T08:28:40.671Z,19.20
2019-05-21T08:31:08.440Z,19.29
2019-05-21T08:33:36.159Z,19.12
2019-05-21T08:36:04.549Z,19.11
2019-05-21T08:38:32.603Z,19.22
2019-05-21T08:41:00.219Z,19.26
2019-05-21T08:43:28.138Z,19.04
2019-05-21T08:45:55.699Z,18.87
2019-05-21T08:48:23.354Z,18.71
2019-05-21T08:50:51.017Z,18.63
2019-05-21T08:53:18.717Z,18.57
2019-05-21T08:55:47.915Z,18.38
2019-05-21T08:58:15.567Z,18.45
2019-05-21T09:00:43.230Z,18.53
2019-05-21T09:03:10.929Z,18.36
2019-05-21T09:05:38.544Z,18.33
2019-05-21T09:08:06.375Z,18.44
2019-05-21T09:10:34.019Z,18.39
2019-05-21T09:13:01.694Z,18.65
2019-05-21T09:15:29.476Z,18.64
2019-05-21T09:17:57.553Z,18.59
2019-05-21T09:20:25.290Z,18.76
2019-05-21T09:22:52.984Z,19.02
2019-05-21T09:25:20.545Z,19.02
2019-05-21T09:27:48.165Z,19.34
2019-05-21T09:30:15.808Z,19.30
2019-05-21T09:32:43.818Z,19.29
2019-05-21T09:35:12.737Z,19.31
2019-05-21T09:37:41.124Z,19.46
2019-05-21T09:40:09.767Z,19.34
2019-05-21T09:42:37.701Z,19.54
2019-05-21T09:45:07.442Z,19.93
2019-05-21T09:47:35.462Z,19.93
2019-05-21T09:50:04.022Z,19.95
2019-05-21T09:52:32.502Z,19.54
2019-05-21T09:55:00.112Z,19.41
2019-05-21T09:57:40.691Z,19.30
2019-05-21T10:00:24.079Z,19.22
2019-05-21T10:02:52.246Z,19.04
2019-05-21T10:05:20.338Z,19.02
2019-05-21T10:07:48.425Z,18.75
2019-05-21T10:10:16.342Z,18.64
2019-05-21T10:12:44.268Z,18.84
2019-05-21T10:15:12.115Z,19.08
2019-05-21T10:17:39.883Z,19.03
2019-05-21T10:20:07.888Z,19.13
2019-05-21T10:22:35.947Z,19.32
2019-05-21T10:25:04.453Z,19.37
2019-05-21T10:27:32.515Z,19.71
2019-05-21T10:30:00.577Z,19.77
2019-05-21T10:32:28.609Z,19.94
2019-05-21T10:34:56.561Z,20.12
2019-05-21T10:37:24.480Z,19.74
2019-05-21T10:39:52.712Z,19.71
2019-05-21T10:42:20.788Z,19.70
2019-05-21T10:44:48.768Z,19.78
2019-05-21T10:47:17.012Z,19.61
2019-05-21T10:49:45.984Z,19.76
2019-05-21T10:52:13.934Z,19.90
2019-05-21T10:54:41.837Z,19.76
2019-05-21T10:57:09.737Z,19.76
2019-05-21T10:59:38.602Z,19.77
2019-05-21T11:02:17.309Z,19.61
2019-05-21T11:05:00.766Z,19.67
2019-05-21T11:07:28.758Z,19.25
2019-05-21T11:09:56.662Z,19.29
2019-05-21T11:12:24.647Z,19.24
2019-05-21T11:14:52.616Z,19.09
2019-05-21T11:17:20.918Z,18.96
2019-05-21T11:19:48.975Z,18.99
2019-05-21T11:22:17.712Z,19.11
2019-05-21T11:24:45.945Z,19.20
2019-05-21T11:27:13.673Z,19.09
2019-05-21T11:29:41.358Z,18.97
2019-05-21T11:32:09.156Z,18.98
2019-05-21T11:34:36.937Z,18.97
2019-05-21T11:37:04.806Z,19.00
2019-05-21T11:39:34.126Z,18.79
2019-05-21T11:42:01.931Z,18.70
2019-05-21T11:44:29.620Z,18.74
2019-05-21T11:46:57.358Z,18.66
2019-05-21T11:49:25.406Z,18.87
2019-05-21T11:51:53.639Z,18.85
2019-05-21T11:54:21.570Z,18.79
2019-05-21T11:56:49.789Z,18.97
2019-05-21T11:59:17.786Z,18.88
2019-05-21T12:01:45.665Z,18.82
2019-05-21T12:04:13.684Z,18.96
2019-05-21T12:06:41.783Z,19.04
2019-05-21T12:09:09.904Z,19.12
2019-05-21T12:11:38.026Z,19.36
2019-05-21T12:14:05.787Z,19.42
2019-05-21T12:16:33.585Z,19.41
2019-05-21T12:19:01.296Z,19.29
2019-05-21T12:21:29.395Z,19.59
2019-05-21T12:23:57.503Z,19.37
2019-05-21T12:26:25.612Z,19.45
2019-05-21T12:28:53.498Z,19.45
2019-05-21T12:31:22.695Z,19.50
2019-05-21T12:33:50.665Z,19.56
2019-05-21T12:36:18.878Z,19.80
2019-05-21T12:38:46.879Z,19.78
2019-05-21T12:41:14.995Z,19.76
2019-05-21T12:43:43.027Z,19.92
2019-05-21T12:46:11.000Z,19.87
2019-05-21T12:48:38.994Z,19.81
2019-05-21T12:51:07.068Z,19.74
2019-05-21T12:53:34.977Z,19.76
2019-05-21T12:56:04.576Z,19.55
2019-05-21T12:58:32.405Z,19.43
2019-05-21T13:01:00.371Z,19.43
2019-05-21T13:03:28.286Z,19.42
2019-05-21T13:05:56.325Z,19.31
2019-05-21T13:08:24.113Z,19.47
2019-05-21T13:10:53.029Z,19.44
2019-05-21T13:13:21.201Z,19.22
2019-05-21T13:15:49.205Z,19.15
2019-05-21T13:18:17.143Z,19.34
2019-05-21T13:20:45.768Z,19.25
2019-05-21T13:23:13.623Z,19.14
2019-05-21T13:25:42.004Z,18.94
2019-05-21T13:28:10.202Z,18.92
2019-05-21T13:30:38.105Z,18.80
2019-05-21T13:33:05.993Z,18.88
2019-05-21T13:35:33.915Z,18.70
2019-05-21T13:38:01.855Z,18.49
2019-05-21T13:40:30.653Z,18.48
2019-05-21T13:42:59.100Z,18.49
2019-05-21T13:45:26.986Z,18.47
2019-05-21T13:47:55.305Z,18.58
2019-05-21T13:50:23.544Z,18.65
2019-05-21T13:52:51.797Z,18.66
2019-05-21T13:55:20.022Z,18.65
2019-05-21T13:57:48.176Z,18.53
2019-05-21T14:00:24.322Z,18.60
2019-05-21T14:02:52.361Z,18.67
2019-05-21T14:05:20.626Z,18.69
2019-05-21T14:07:48.610Z,18.66
2019-05-21T14:10:19.886Z,18.81
2019-05-21T14:12:46.431Z,18.84
2019-05-21T14:15:14.600Z,18.99
2019-05-21T14:17:42.403Z,18.99
2019-05-21T14:20:11.044Z,19.20
2019-05-21T14:22:39.021Z,19.12
2019-05-21T14:25:06.995Z,19.42
2019-05-21T14:27:44.234Z,19.47
2019-05-21T14:30:05.517Z,19.46
2019-05-21T14:32:33.660Z,19.61
2019-05-21T14:35:02.505Z,19.69
2019-05-21T14:37:30.766Z,19.60
2019-05-21T14:39:59.744Z,19.73
2019-05-21T14:42:27.503Z,19.57
2019-05-21T14:44:55.172Z,19.65
2019-05-21T14:47:22.781Z,19.47
2019-05-21T14:49:50.396Z,19.49
2019-05-21T14:52:17.938Z,19.44
2019-05-21T14:54:45.593Z,19.44
2019-05-21T14:57:13.144Z,19.48
2019-05-21T14:59:40.903Z,19.42
2019-05-21T15:02:08.866Z,19.49
2019-05-21T15:04:36.973Z,19.47
2019-05-21T15:07:06.494Z,19.50
2019-05-21T15:09:34.713Z,19.51
2019-05-21T15:12:02.349Z,19.58
2019-05-21T15:14:31.053Z,19.47
2019-05-21T15:16:59.126Z,19.41
2019-05-21T15:19:27.124Z,19.38
2019-05-21T15:21:55.053Z,19.38
2019-05-21T15:24:23.127Z,19.42
2019-05-21T15:26:52.390Z,19.52
2019-05-21T15:29:21.841Z,19.54
2019-05-21T15:31:50.800Z,19.59
2019-05-21T15:34:18.932Z,19.46
2019-05-21T15:36:46.461Z,19.38
2019-05-21T15:39:14.384Z,19.47
2019-05-21T15:41:42.291Z,19.47
2019-05-21T15:44:10.018Z,19.45
2019-05-21T15:46:47.656Z,19.48
2019-05-21T15:49:08.954Z,19.33
2019-05-21T15:51:36.468Z,19.40
2019-05-21T15:54:04.269Z,19.51
2019-05-21T15:56:31.772Z,19.58
2019-05-21T15:58:59.465Z,19.63
2019-05-21T16:01:26.996Z,19.64
2019-05-21T16:03:54.647Z,19.70
2019-05-21T16:06:22.186Z,19.80
2019-05-21T16:08:49.882Z,19.72
2019-05-21T16:11:28.188Z,19.75
2019-05-21T16:13:47.111Z,19.72
2019-05-21T16:16:15.084Z,19.63
2019-05-21T16:18:42.777Z,19.58
2019-05-21T16:21:10.464Z,19.57
2019-05-21T16:23:38.214Z,19.61
2019-05-21T16:26:05.863Z,19.58
2019-05-21T16:28:33.718Z,19.53
2019-05-21T16:31:01.457Z,19.37
2019-05-21T16:33:29.119Z,19.41
2019-05-21T16:35:56.806Z,19.30
2019-05-21T16:38:24.604Z,19.32
2019-05-21T16:40:52.505Z,19.34
2019-05-21T16:43:27.871Z,19.26
2019-05-21T16:45:55.710Z,19.24
2019-05-21T16:48:23.481Z,19.19
2019-05-21T16:50:51.211Z,19.10
2019-05-21T16:53:18.955Z,19.05
2019-05-21T16:55:49.352Z,18.97
2019-05-21T16:58:33.565Z,19.03
2019-05-21T17:01:15.904Z,18.94
2019-05-21T17:03:41.247Z,18.89
2019-05-21T17:06:09.609Z,18.82
2019-05-21T17:08:45.594Z,18.87
2019-05-21T17:11:14.016Z,18.85
2019-05-21T17:13:55.943Z,18.90
2019-05-21T17:17:13.685Z,18.97
2019-05-21T17:19:49.097Z,18.88
2019-05-21T17:22:24.328Z,18.84
2019-05-21T17:25:00.148Z,18.75
2019-05-21T17:27:31.073Z,18.72
2019-05-21T17:30:04.090Z,18.67
2019-05-21T17:32:39.472Z,18.57
2019-05-21T17:35:19.518Z,18.51
2019-05-21T17:37:52.612Z,18.47
2019-05-21T17:40:29.766Z,18.44
2019-05-21T17:43:01.818Z,18.40
2019-05-21T17:45:38.990Z,18.35
2019-05-21T17:48:11.007Z,18.28
2019-05-21T17:50:52.767Z,18.23
2019-05-21T17:53:28.602Z,18.16
2019-05-21T17:56:04.050Z,18.16
2019-05-21T17:58:33.512Z,18.08
2019-05-21T18:01:03.290Z,18.02
2019-05-21T18:03:32.015Z,17.97
2019-05-21T18:06:00.322Z,17.88
2019-05-21T18:08:28.994Z,17.82
2019-05-21T18:10:56.957Z,17.71
2019-05-21T18:13:25.212Z,17.58
2019-05-21T18:15:59.022Z,17.61
2019-05-21T18:18:31.181Z,17.54
2019-05-21T18:21:07.277Z,17.44
2019-05-21T18:23:36.317Z,17.29
2019-05-21T18:29:55.927Z,17.24
2019-05-21T18:32:23.722Z,17.14
2019-05-21T18:34:51.377Z,17.07
2019-05-21T18:37:19.448Z,16.93
2019-05-21T18:40:28.387Z,16.94
2019-05-21T18:43:03.323Z,16.86
2019-05-21T18:46:07.522Z,16.77
2019-05-21T18:48:36.305Z,16.74
2019-05-21T18:54:47.861Z,16.65
2019-05-21T18:57:14.629Z,16.55
2019-05-21T18:59:42.494Z,16.51
2019-05-21T19:02:11.440Z,16.44
2019-05-21T19:04:39.407Z,16.41
2019-05-21T19:07:07.138Z,16.36
2019-05-21T19:09:34.850Z,16.30
2019-05-21T19:12:02.906Z,16.23
2019-05-21T19:14:30.705Z,16.23
2019-05-21T19:20:23.871Z,16.09
2019-05-21T19:22:51.517Z,16.11
2019-05-21T19:25:19.150Z,16.07
2019-05-21T19:27:46.735Z,16.02
2019-05-21T19:30:15.805Z,15.86
2019-05-21T19:32:43.392Z,15.89
2019-05-21T19:35:11.056Z,15.79
2019-05-21T19:37:38.684Z,15.77
2019-05-21T19:40:06.510Z,15.56
2019-05-21T19:42:34.434Z,15.69
2019-05-21T19:45:02.478Z,15.63
2019-05-21T19:47:30.209Z,15.59
2019-05-21T19:49:57.750Z,15.53
2019-05-21T19:52:25.367Z,15.56
2019-05-21T19:54:52.994Z,15.53
2019-05-21T19:57:22.576Z,15.51
2019-05-21T19:59:50.205Z,15.44
2019-05-21T20:02:18.831Z,15.40
2019-05-21T20:04:48.439Z,15.20
2019-05-21T20:07:17.021Z,15.34
2019-05-21T20:09:47.955Z,15.34
2019-05-21T20:12:16.688Z,15.32
2019-05-21T20:14:45.295Z,15.32
2019-05-21T20:17:15.147Z,15.31
2019-05-21T20:19:45.440Z,15.26
2019-05-21T20:22:13.489Z,15.24
2019-05-21T20:24:41.363Z,15.18
2019-05-21T20:27:10.496Z,15.00
2019-05-21T20:29:38.455Z,14.99
2019-05-21T20:32:08.659Z,14.93
2019-05-21T20:34:37.136Z,14.83
2019-05-21T20:37:07.132Z,14.77
2019-05-21T20:39:36.889Z,14.66
2019-05-21T20:42:05.671Z,14.57
2019-05-21T20:44:33.936Z,14.48
2019-05-21T20:47:03.367Z,14.38
2019-05-21T20:49:31.399Z,14.29
2019-05-21T20:51:59.011Z,14.22
2019-05-21T20:54:27.454Z,14.01
2019-05-21T20:56:55.351Z,14.03
2019-05-21T20:59:22.875Z,13.93
2019-05-21T21:01:50.470Z,13.86
2019-05-21T21:04:18.056Z,13.81
2019-05-21T21:06:46.497Z,13.75
2019-05-21T21:09:15.577Z,13.53
2019-05-21T21:11:43.568Z,13.65
2019-05-21T21:14:17.932Z,13.62
2019-05-21T21:16:42.535Z,13.59
2019-05-21T21:19:10.413Z,13.64
2019-05-21T21:21:38.265Z,13.63
2019-05-21T21:24:05.952Z,13.65
2019-05-21T21:26:34.476Z,13.65
2019-05-21T21:29:02.113Z,13.64
2019-05-21T21:31:29.961Z,13.63
2019-05-21T21:33:58.554Z,13.60
2019-05-21T21:36:26.188Z,13.58
2019-05-21T21:38:54.214Z,13.56
2019-05-21T21:41:22.287Z,13.55
2019-05-21T21:43:49.953Z,13.57
2019-05-21T21:46:17.507Z,13.56
2019-05-21T21:48:45.724Z,13.59
2019-05-21T21:51:14.508Z,13.59
2019-05-21T21:53:42.603Z,13.60
2019-05-21T21:56:10.111Z,13.61
2019-05-21T21:58:37.733Z,13.58
2019-05-21T22:01:35.722Z,13.49
2019-05-21T22:04:05.186Z,13.64
2019-05-21T22:06:34.802Z,13.57
2019-05-21T22:09:04.367Z,13.56
2019-05-21T22:11:33.351Z,13.56
2019-05-21T22:14:02.781Z,13.56
2019-05-21T22:16:30.650Z,13.52
2019-05-21T22:18:59.313Z,13.54
2019-05-21T22:21:27.501Z,13.48
2019-05-21T22:23:57.104Z,13.47
2019-05-21T22:26:24.880Z,13.47
2019-05-21T22:28:52.573Z,13.51
2019-05-21T22:31:20.274Z,13.51
2019-05-21T22:33:48.131Z,13.49
2019-05-21T22:36:15.883Z,13.49
2019-05-21T22:38:43.542Z,13.53
2019-05-21T22:41:11.154Z,13.55
2019-05-21T22:43:39.486Z,13.51
2019-05-21T22:46:07.319Z,13.48
2019-05-21T22:48:34.992Z,13.51
2019-05-21T22:51:03.143Z,13.51
2019-05-21T22:53:30.739Z,13.46
2019-05-21T22:55:58.326Z,13.44
2019-05-21T22:58:26.005Z,13.45
2019-05-21T23:00:53.787Z,13.44
2019-05-21T23:03:22.037Z,13.42
2019-05-21T23:05:49.620Z,13.24
2019-05-21T23:08:17.669Z,13.41
2019-05-21T23:10:45.358Z,13.35
2019-05-21T23:13:14.071Z,13.37
2019-05-21T23:15:42.135Z,13.36
2019-05-21T23:18:21.045Z,13.36
2019-05-21T23:20:59.641Z,13.35
2019-05-21T23:23:30.769Z,13.31
2019-05-21T23:25:58.551Z,13.31
2019-05-21T23:28:26.411Z,13.25
2019-05-21T23:30:55.041Z,13.22
2019-05-21T23:33:23.123Z,13.22
2019-05-21T23:35:51.766Z,13.20
2019-05-21T23:38:19.396Z,13.20
2019-05-21T23:40:48.496Z,13.17
2019-05-21T23:43:16.586Z,13.14
2019-05-21T23:45:44.234Z,13.13
2019-05-21T23:48:13.835Z,13.10
2019-05-21T23:50:41.494Z,13.08
2019-05-21T23:53:09.221Z,13.04
2019-05-21T23:55:37.504Z,13.02
2019-05-21T23:58:05.491Z,12.83
